Time;durP1;ratioP1;P1;durP2;ratioP2;P2;SDS_P1;SDS_P2;PMS_P1;PMS_P2;Temp;Humidity;BMP_temperature;BMP_pressure;BME280_temperature;BME280_humidity;BME280_pressure;Samples;Min_cycle;Max_cycle;Signal;HPM_P1;HPM_P2
2022/08/26 00:01:00;;;;;;;;;;;;;;;17.19;56.15;97659.22;6215216;28;19925;-63
2022/08/26 00:04:04;;;;;;;;;;;;;;;17.14;56.69;97654.25;6214389;28;20451;-63
2022/08/26 00:07:05;;;;;;;;;;;;;;;17.10;56.54;97659.94;6218750;28;20410;-63
2022/08/26 00:10:07;;;;;;;;;;;;;;;17.09;56.60;97660.91;6211272;28;19927;-64
2022/08/26 00:13:09;;;;;;;;;;;;;;;17.05;56.95;97653.16;6209363;28;20035;-63
2022/08/26 00:16:11;;;;;;;;;;;;;;;17.09;57.21;97650.28;6214486;28;19926;-62
2022/08/26 00:19:12;;;;;;;;;;;;;;;17.04;57.22;97648.84;6212620;28;19926;-62
2022/08/26 00:22:15;;;;;;;;;;;;;;;17.01;57.24;97649.06;6215401;28;19925;-63
2022/08/26 00:25:17;;;;;;;;;;;;;;;16.98;57.53;97654.59;6214509;28;20413;-62
2022/08/26 00:28:19;;;;;;;;;;;;;;;16.92;57.40;97657.75;6207034;28;19925;-63
2022/08/26 00:31:22;;;;;;;;;;;;;;;16.87;57.39;97657.28;6217960;28;19934;-62
2022/08/26 00:34:26;;;;;;;;;;;;;;;16.81;57.46;97660.41;6211981;28;19925;-63
2022/08/26 00:37:27;;;;;;;;;;;;;;;16.79;57.72;97654.38;6217370;28;19921;-64
2022/08/26 00:40:30;;;;;;;;;;;;;;;16.73;57.59;97649.47;6211262;28;19979;-63
2022/08/26 00:43:36;;;;;;;;;;;;;;;16.67;57.76;97649.97;6214376;28;19933;-63
2022/08/26 00:46:42;;;;;;;;;;;;;;;16.63;57.73;97648.50;6214591;28;19921;-63
2022/08/26 00:49:46;;;;;;;;;;;;;;;16.67;58.49;97647.31;6214789;28;19972;-63
2022/08/26 00:52:51;;;;;;;;;;;;;;;16.63;58.08;97649.34;6204492;28;19925;-62
2022/08/26 00:55:58;;;;;;;;;;;;;;;16.59;58.04;97642.59;6211154;28;19932;-64
2022/08/26 00:59:05;;;;;;;;;;;;;;;16.50;58.00;97651.25;6217471;28;19926;-63
2022/08/26 01:02:06;;;;;;;;;;;;;;;16.45;58.35;97650.78;6210510;28;20313;-62
2022/08/26 01:05:10;;;;;;;;;;;;;;;16.41;58.28;97650.16;6209499;28;20301;-62
2022/08/26 01:08:11;;;;;;;;;;;;;;;16.43;58.54;97648.22;6217431;28;19929;-63
2022/08/26 01:11:15;;;;;;;;;;;;;;;16.46;58.85;97648.00;6209455;28;20478;-63
2022/08/26 01:14:17;;;;;;;;;;;;;;;16.48;59.03;97656.69;6218045;28;20386;-62
2022/08/26 01:17:22;;;;;;;;;;;;;;;16.50;59.38;97654.78;6217044;28;19926;-63
2022/08/26 01:20:28;;;;;;;;;;;;;;;16.50;59.39;97659.22;6218073;28;19983;-63
2022/08/26 01:23:32;;;;;;;;;;;;;;;16.49;59.36;97653.06;6217774;28;20241;-63
2022/08/26 01:26:40;;;;;;;;;;;;;;;16.42;59.23;97654.50;6217419;28;19925;-64
2022/08/26 01:29:42;;;;;;;;;;;;;;;16.39;58.97;97654.75;6207226;28;19926;-63
2022/08/26 01:32:47;;;;;;;;;;;;;;;16.38;58.98;97655.69;6216675;28;20398;-63
2022/08/26 01:35:51;;;;;;;;;;;;;;;16.41;58.84;97658.13;6218418;28;19926;-63
2022/08/26 01:38:55;;;;;;;;;;;;;;;16.46;58.78;97658.63;6222489;28;19928;-63
2022/08/26 01:41:57;;;;;;;;;;;;;;;16.53;58.66;97657.19;6221204;28;19925;-63
2022/08/26 01:45:11;;;;;;;;;;;;;;;16.65;58.70;97657.22;6222152;28;19926;-63
2022/08/26 01:48:14;;;;;;;;;;;;;;;16.73;58.50;97660.97;6212464;28;19925;-63
2022/08/26 01:51:19;;;;;;;;;;;;;;;16.79;58.08;97660.53;6222675;28;20334;-63
2022/08/26 01:54:23;;;;;;;;;;;;;;;16.90;58.33;97657.03;6221560;28;20399;-63
2022/08/26 01:57:25;;;;;;;;;;;;;;;16.95;57.90;97660.16;6216634;28;19926;-63
2022/08/26 02:00:27;;;;;;;;;;;;;;;17.04;57.87;97662.13;6219872;28;19933;-63
2022/08/26 02:03:31;;;;;;;;;;;;;;;17.10;57.98;97662.59;6221426;28;20059;-63
2022/08/26 02:06:32;;;;;;;;;;;;;;;17.17;57.46;97663.81;6214937;28;19925;-63
2022/08/26 02:09:36;;;;;;;;;;;;;;;17.23;57.59;97669.47;6221530;28;22089;-64
2022/08/26 02:12:37;;;;;;;;;;;;;;;17.30;57.40;97674.34;6217898;28;19925;-63
2022/08/26 02:15:41;;;;;;;;;;;;;;;17.36;57.35;97664.03;6220752;28;20020;-64
2022/08/26 02:18:44;;;;;;;;;;;;;;;17.45;57.11;97668.63;6215292;28;20403;-62
2022/08/26 02:21:47;;;;;;;;;;;;;;;17.55;57.02;97673.19;6216331;28;20015;-63
2022/08/26 02:24:52;;;;;;;;;;;;;;;17.62;57.03;97669.09;6220884;28;19933;-64
2022/08/26 02:27:55;;;;;;;;;;;;;;;17.71;56.74;97673.66;6213170;28;20448;-64
2022/08/26 02:30:59;;;;;;;;;;;;;;;17.83;56.76;97675.34;6221490;28;19931;-64
2022/08/26 02:34:14;;;;;;;;;;;;;;;18.01;56.89;97674.84;6214611;28;20382;-63
2022/08/26 02:37:15;;;;;;;;;;;;;;;18.14;57.05;97680.81;6220631;28;19925;-63
2022/08/26 02:40:20;;;;;;;;;;;;;;;18.24;56.85;97692.41;6209135;28;19926;-63
2022/08/26 02:43:25;;;;;;;;;;;;;;;18.38;56.20;97689.44;6215869;28;19929;-63
2022/08/26 02:46:27;;;;;;;;;;;;;;;18.48;56.38;97683.34;6216579;28;20489;-63
2022/08/26 02:49:29;;;;;;;;;;;;;;;18.65;56.59;97687.25;6220844;28;19949;-63
2022/08/26 02:52:30;;;;;;;;;;;;;;;18.68;56.35;97684.31;6208162;28;19932;-62
2022/08/26 02:55:31;;;;;;;;;;;;;;;18.81;55.83;97683.16;6216400;28;19926;-62
2022/08/26 02:58:32;;;;;;;;;;;;;;;18.94;55.71;97690.09;6216376;28;20032;-63
2022/08/26 03:01:35;;;;;;;;;;;;;;;19.10;55.60;97687.81;6220502;28;19925;-63
2022/08/26 03:04:37;;;;;;;;;;;;;;;19.25;55.35;97686.50;6206900;28;19949;-63
2022/08/26 03:07:39;;;;;;;;;;;;;;;19.53;55.61;97686.72;6212709;28;20110;-64
2022/08/26 03:10:46;;;;;;;;;;;;;;;19.59;55.22;97691.53;6212333;28;19933;-64
2022/08/26 03:13:47;;;;;;;;;;;;;;;19.74;54.83;97690.19;6212558;28;19925;-62
2022/08/26 03:16:51;;;;;;;;;;;;;;;19.87;54.65;97689.97;6213808;28;20299;-63
2022/08/26 03:19:52;;;;;;;;;;;;;;;20.00;54.29;97689.69;6220870;28;19933;-62
2022/08/26 03:22:55;;;;;;;;;;;;;;;20.15;53.61;97688.28;6211595;28;19926;-62
2022/08/26 03:25:57;;;;;;;;;;;;;;;20.29;53.61;97691.53;6217156;28;19929;-64
2022/08/26 03:32:17;;;;;;;;;;;;;;;20.69;52.62;97695.91;6209268;28;20418;-64
2022/08/26 03:35:20;;;;;;;;;;;;;;;20.80;52.08;97691.22;6208497;28;19925;-63
2022/08/26 03:38:27;;;;;;;;;;;;;;;20.90;51.52;97699.25;6217157;28;20477;-64
2022/08/26 03:41:32;;;;;;;;;;;;;;;21.12;51.26;97700.75;6212647;28;19929;-63
2022/08/26 03:44:35;;;;;;;;;;;;;;;21.31;50.87;97702.50;6214840;28;20020;-63
2022/08/26 03:47:39;;;;;;;;;;;;;;;21.46;50.20;97701.09;6216905;28;20354;-63
2022/08/26 03:50:41;;;;;;;;;;;;;;;21.58;50.05;97701.72;6212376;28;19925;-63
2022/08/26 03:53:45;;;;;;;;;;;;;;;21.61;50.01;97700.59;6219152;28;20430;-64
2022/08/26 03:56:46;;;;;;;;;;;;;;;21.78;49.89;97705.16;6217861;28;19925;-69
2022/08/26 04:00:10;;;;;;;;;;;;;;;21.95;49.44;97707.00;6228495;28;20299;-69
2022/08/26 04:03:56;;;;;;;;;;;;;;;22.13;49.22;97707.03;6212767;28;20387;-69
2022/08/26 04:06:37;;;;;;;;;;;;;;;22.49;47.91;97706.25;6209038;28;20426;-69
2022/08/26 04:09:38;;;;;;;;;;;;;;;22.64;47.18;97707.38;6217884;28;19925;-69
2022/08/26 04:12:43;;;;;;;;;;;;;;;22.83;46.57;97707.19;6215441;28;20402;-63
2022/08/26 04:15:44;;;;;;;;;;;;;;;23.07;45.68;97708.38;6212802;28;20305;-63
2022/08/26 04:18:45;;;;;;;;;;;;;;;23.33;44.84;97713.78;6208162;28;20041;-63
2022/08/26 04:21:51;;;;;;;;;;;;;;;23.47;44.52;97706.97;6218687;28;19968;-62
2022/08/26 04:24:55;;;;;;;;;;;;;;;23.60;44.21;97712.72;6214238;28;19960;-63
2022/08/26 04:27:58;;;;;;;;;;;;;;;23.77;43.90;97710.13;6217381;28;19929;-63
2022/08/26 04:31:07;;;;;;;;;;;;;;;24.04;43.06;97707.22;6209696;28;19925;-62
2022/08/26 04:34:12;;;;;;;;;;;;;;;24.07;43.07;97712.25;6218009;28;19926;-63
2022/08/26 04:37:13;;;;;;;;;;;;;;;24.26;42.68;97705.75;6209516;28;19933;-63
2022/08/26 04:40:16;;;;;;;;;;;;;;;24.51;41.73;97708.50;6216171;28;19925;-63
2022/08/26 04:43:17;;;;;;;;;;;;;;;24.55;42.09;97713.38;6208852;28;20067;-65
2022/08/26 04:46:21;;;;;;;;;;;;;;;24.82;41.59;97711.34;6214023;28;20414;-63
2022/08/26 04:49:24;;;;;;;;;;;;;;;25.00;41.09;97712.03;6213479;28;19968;-62
2022/08/26 04:52:25;;;;;;;;;;;;;;;25.07;40.67;97715.69;6211762;28;20384;-64
2022/08/26 04:55:29;;;;;;;;;;;;;;;25.24;40.54;97713.84;6216834;28;20033;-63
2022/08/26 04:58:34;;;;;;;;;;;;;;;25.40;40.86;97714.84;6208935;28;20339;-64
2022/08/26 05:01:41;;;;;;;;;;;;;;;25.58;40.44;97711.91;6216493;28;19925;-64
2022/08/26 05:04:44;;;;;;;;;;;;;;;25.87;39.68;97712.16;6218201;28;19925;-63
2022/08/26 05:07:47;;;;;;;;;;;;;;;26.14;38.90;97712.72;6208373;28;19925;-62
2022/08/26 05:10:55;;;;;;;;;;;;;;;26.31;38.63;97722.38;6199975;28;19926;-63
2022/08/26 05:13:56;;;;;;;;;;;;;;;26.53;38.25;97718.06;6200982;28;20024;-63
2022/08/26 05:17:00;;;;;;;;;;;;;;;26.94;37.48;97719.56;6201051;28;19971;-63
2022/08/26 05:20:02;;;;;;;;;;;;;;;30.20;32.88;97734.69;6200755;28;20315;-63
2022/08/26 05:23:08;;;;;;;;;;;;;;;34.75;27.33;97737.41;6212037;28;19932;-63
2022/08/26 05:26:11;;;;;;;;;;;;;;;38.28;22.96;97738.84;6222788;28;20028;-63
2022/08/26 05:29:12;;;;;;;;;;;;;;;40.64;20.26;97744.22;6219959;28;19925;-64
2022/08/26 05:32:18;;;;;;;;;;;;;;;42.65;18.27;97743.66;6214834;28;20387;-62
2022/08/26 05:35:21;;;;;;;;;;;;;;;44.49;17.24;97747.50;6218653;28;20334;-63
2022/08/26 05:38:27;;;;;;;;;;;;;;;45.98;15.56;97745.94;6222224;28;19926;-63
2022/08/26 05:41:33;;;;;;;;;;;;;;;46.93;14.19;97745.28;6218925;28;20391;-65
2022/08/26 05:44:36;;;;;;;;;;;;;;;47.74;13.22;97741.59;6208909;28;20015;-64
2022/08/26 05:47:37;;;;;;;;;;;;;;;47.93;12.42;97733.84;6224352;28;20043;-64
2022/08/26 05:50:41;;;;;;;;;;;;;;;48.05;11.62;97731.25;6202760;28;20092;-63
2022/08/26 05:53:42;;;;;;;;;;;;;;;47.60;11.78;97724.97;6200302;28;19930;-63
2022/08/26 05:56:46;;;;;;;;;;;;;;;48.12;11.28;97725.16;6216575;28;19925;-64
2022/08/26 05:59:52;;;;;;;;;;;;;;;48.97;11.22;97739.63;6221242;28;19926;-63
2022/08/26 06:02:53;;;;;;;;;;;;;;;49.80;10.44;97727.34;6209271;28;19929;-63
2022/08/26 06:05:57;;;;;;;;;;;;;;;49.80;10.00;97727.34;6212469;28;20398;-64
2022/08/26 06:09:05;;;;;;;;;;;;;;;49.97;10.27;97731.22;6220786;28;19925;-63
2022/08/26 06:12:10;;;;;;;;;;;;;;;50.85;9.13;97726.72;6214777;28;19925;-64
2022/08/26 06:15:16;;;;;;;;;;;;;;;50.55;9.12;97719.19;6215813;28;19925;-62
2022/08/26 06:18:21;;;;;;;;;;;;;;;50.05;9.50;97710.75;6219192;28;20005;-64
2022/08/26 06:21:30;;;;;;;;;;;;;;;50.00;10.13;97716.53;6213614;28;20024;-64
2022/08/26 06:27:54;;;;;;;;;;;;;;;50.17;9.07;97707.22;6215618;28;19925;-64
2022/08/26 06:31:01;;;;;;;;;;;;;;;50.26;9.11;97703.22;6215573;28;19926;-64
2022/08/26 06:34:03;;;;;;;;;;;;;;;49.76;9.41;97701.16;6216395;28;19931;-64
2022/08/26 06:37:05;;;;;;;;;;;;;;;48.68;9.63;97698.38;6220185;28;20406;-63
2022/08/26 06:40:09;;;;;;;;;;;;;;;49.27;9.26;97703.47;6213171;28;19925;-64
2022/08/26 06:43:13;;;;;;;;;;;;;;;49.32;9.31;97703.28;6206047;28;19929;-63
2022/08/26 06:46:16;;;;;;;;;;;;;;;50.42;8.93;97695.06;6209636;28;19972;-67
2022/08/26 06:49:19;;;;;;;;;;;;;;;51.47;8.37;97700.59;6217877;28;20406;-63
2022/08/26 06:52:22;;;;;;;;;;;;;;;51.44;8.27;97698.47;6207715;28;19949;-63
2022/08/26 06:55:24;;;;;;;;;;;;;;;48.00;9.78;97683.94;6213915;28;20405;-62
2022/08/26 06:58:29;;;;;;;;;;;;;;;45.45;11.44;97674.88;6217723;28;19925;-64
2022/08/26 07:01:34;;;;;;;;;;;;;;;46.23;11.08;97676.97;6212653;28;19925;-63
2022/08/26 07:04:37;;;;;;;;;;;;;;;46.43;10.71;97681.28;6218641;28;19925;-65
2022/08/26 07:07:43;;;;;;;;;;;;;;;45.10;11.36;97665.25;6214895;28;20395;-65
2022/08/26 07:10:47;;;;;;;;;;;;;;;44.96;11.54;97672.72;6220389;28;19925;-64
2022/08/26 07:13:50;;;;;;;;;;;;;;;46.70;10.62;97667.28;6215564;28;19933;-64
2022/08/26 07:17:01;;;;;;;;;;;;;;;48.16;9.38;97669.56;6211500;28;19972;-68
2022/08/26 07:20:03;;;;;;;;;;;;;;;48.90;9.29;97668.66;6215450;28;19925;-66
2022/08/26 07:23:07;;;;;;;;;;;;;;;49.97;8.76;97669.66;6213028;28;20489;-66
2022/08/26 07:26:11;;;;;;;;;;;;;;;47.11;9.68;97657.94;6212133;28;19926;-65
2022/08/26 07:29:13;;;;;;;;;;;;;;;43.24;12.29;97645.78;6216640;28;20007;-65
2022/08/26 07:32:15;;;;;;;;;;;;;;;44.46;11.42;97648.19;6215232;28;19925;-64
2022/08/26 07:35:22;;;;;;;;;;;;;;;46.29;10.01;97654.31;6220577;28;20299;-64
2022/08/26 07:38:27;;;;;;;;;;;;;;;47.77;8.69;97657.28;6218580;28;19925;-65
2022/08/26 07:41:32;;;;;;;;;;;;;;;48.64;8.30;97651.88;6218477;28;20291;-64
2022/08/26 07:44:35;;;;;;;;;;;;;;;49.19;7.92;97653.97;6213475;28;20024;-64
2022/08/26 07:47:38;;;;;;;;;;;;;;;50.13;7.42;97653.91;6212583;28;19925;-64
2022/08/26 07:50:40;;;;;;;;;;;;;;;50.31;6.83;97647.06;6204328;28;19926;-65
2022/08/26 07:53:44;;;;;;;;;;;;;;;50.08;7.17;97648.50;6214400;28;20080;-65
2022/08/26 07:56:48;;;;;;;;;;;;;;;51.03;6.46;97648.94;6209092;28;19925;-65
2022/08/26 07:59:50;;;;;;;;;;;;;;;51.34;6.36;97649.25;6210116;28;19926;-67
2022/08/26 08:02:54;;;;;;;;;;;;;;;51.23;6.07;97652.84;6215324;28;19926;-65
2022/08/26 08:05:56;;;;;;;;;;;;;;;50.75;6.46;97639.13;6213004;28;19937;-65
2022/08/26 08:09:02;;;;;;;;;;;;;;;51.64;6.39;97646.22;6205095;28;19941;-64
2022/08/26 08:12:09;;;;;;;;;;;;;;;52.70;5.55;97644.38;6215729;28;19929;-64
2022/08/26 08:15:12;;;;;;;;;;;;;;;52.68;5.69;97646.72;6215898;28;20400;-65
2022/08/26 08:18:15;;;;;;;;;;;;;;;52.02;5.93;97639.50;6211517;28;19975;-65
2022/08/26 08:21:20;;;;;;;;;;;;;;;51.51;6.11;97630.59;6214633;28;19929;-64
2022/08/26 08:24:27;;;;;;;;;;;;;;;51.04;6.21;97626.16;6213803;28;20386;-65
2022/08/26 08:27:28;;;;;;;;;;;;;;;50.54;6.42;97621.50;6219172;28;19932;-65
2022/08/26 08:30:32;;;;;;;;;;;;;;;49.92;6.66;97616.66;6219058;28;20063;-65
2022/08/26 08:33:36;;;;;;;;;;;;;;;50.42;6.73;97618.63;6215479;28;19929;-65
2022/08/26 08:36:37;;;;;;;;;;;;;;;50.61;6.50;97620.94;6213857;28;19933;-64
2022/08/26 08:39:38;;;;;;;;;;;;;;;50.68;6.58;97610.88;6214078;28;19925;-65
2022/08/26 08:43:18;;;;;;;;;;;;;;;50.41;6.62;97611.41;6207830;28;19933;-66
2022/08/26 08:46:23;;;;;;;;;;;;;;;49.00;7.46;97602.06;6137774;29;20312;-65
2022/08/26 08:49:27;;;;;;;;;;;;;;;49.42;7.38;97587.47;6137249;28;19926;-65
2022/08/26 08:52:34;;;;;;;;;;;;;;;49.50;7.40;97603.38;6209182;28;19926;-65
2022/08/26 08:55:49;;;;;;;;;;;;;;;49.53;7.18;97591.50;6213089;28;20016;-66
2022/08/26 08:59:09;;;;;;;;;;;;;;;50.05;7.09;97587.63;6214286;28;20080;-65
2022/08/26 09:02:28;;;;;;;;;;;;;;;51.49;6.85;97591.66;6220428;28;19925;-65
2022/08/26 09:05:40;;;;;;;;;;;;;;;52.04;6.54;97593.06;6219440;28;20016;-65
2022/08/26 09:08:47;;;;;;;;;;;;;;;50.58;7.35;97586.03;6195594;28;19926;-65
2022/08/26 09:11:54;;;;;;;;;;;;;;;48.00;8.23;97572.34;6196161;28;19925;-64
2022/08/26 09:15:01;;;;;;;;;;;;;;;47.78;8.94;97569.69;6196232;28;19933;-64
2022/08/26 09:18:17;;;;;;;;;;;;;;;50.11;7.48;97569.44;6196303;28;19925;-64
2022/08/26 09:21:22;;;;;;;;;;;;;;;51.19;7.09;97574.22;6196010;28;19925;-64
2022/08/26 09:24:28;;;;;;;;;;;;;;;51.81;6.65;97572.25;6197006;28;20032;-64
2022/08/26 09:27:37;;;;;;;;;;;;;;;52.17;6.36;97562.13;6196552;28;20398;-64
2022/08/26 09:30:44;;;;;;;;;;;;;;;53.37;6.10;97569.53;6196168;28;20020;-66
2022/08/26 09:33:48;;;;;;;;;;;;;;;52.75;6.28;97571.06;6218701;28;19950;-64
2022/08/26 09:36:53;;;;;;;;;;;;;;;52.68;6.43;97570.88;6244498;28;20390;-65
2022/08/26 09:40:10;;;;;;;;;;;;;;;52.26;6.58;97565.59;6236270;28;20422;-65
2022/08/26 09:43:21;;;;;;;;;;;;;;;50.31;7.48;97560.28;6195711;28;19933;-65
2022/08/26 09:46:26;;;;;;;;;;;;;;;51.27;7.23;97558.44;6210692;28;19925;-64
2022/08/26 09:49:35;;;;;;;;;;;;;;;53.16;6.36;97574.56;6196020;28;20031;-64
2022/08/26 09:52:38;;;;;;;;;;;;;;;54.51;5.62;97564.88;6195984;28;20370;-64
2022/08/26 09:55:41;;;;;;;;;;;;;;;55.33;5.22;97566.41;6197496;28;19926;-64
2022/08/26 09:58:47;;;;;;;;;;;;;;;55.26;5.58;97571.09;6212161;28;20407;-65
2022/08/26 10:01:49;;;;;;;;;;;;;;;53.96;5.09;97555.59;6224166;28;20338;-64
2022/08/26 10:04:54;;;;;;;;;;;;;;;53.40;5.79;97546.28;6223844;28;20056;-65
2022/08/26 10:08:16;;;;;;;;;;;;;;;54.12;5.66;97547.13;6224288;28;20414;-65
2022/08/26 10:11:38;;;;;;;;;;;;;;;54.86;5.58;97542.19;6224227;28;20016;-64
2022/08/26 10:14:46;;;;;;;;;;;;;;;54.82;5.55;97538.50;6213686;28;20354;-65
2022/08/26 10:17:54;;;;;;;;;;;;;;;54.65;5.39;97537.00;6199876;28;20395;-65
2022/08/26 10:21:06;;;;;;;;;;;;;;;52.36;5.78;97528.63;6199325;28;20016;-65
2022/08/26 10:24:18;;;;;;;;;;;;;;;51.02;6.21;97522.00;6199293;28;19926;-65
2022/08/26 10:27:38;;;;;;;;;;;;;;;50.28;6.61;97507.78;6198131;28;20303;-65
2022/08/26 10:30:45;;;;;;;;;;;;;;;50.37;6.38;97504.88;6199632;28;19976;-64
2022/08/26 10:33:49;;;;;;;;;;;;;;;49.58;6.99;97489.88;6222321;28;19932;-66
2022/08/26 10:37:00;;;;;;;;;;;;;;;49.55;6.99;97491.34;6248016;28;19929;-65
2022/08/26 10:40:23;;;;;;;;;;;;;;;49.15;6.33;97491.72;6242359;28;19925;-65
2022/08/26 10:43:27;;;;;;;;;;;;;;;47.62;6.90;97483.69;6223183;28;20023;-64
2022/08/26 10:46:41;;;;;;;;;;;;;;;47.44;7.21;97482.03;6222575;28;20561;-65
2022/08/26 10:49:44;;;;;;;;;;;;;;;47.26;7.32;97483.13;6204454;28;19922;-64
2022/08/26 10:53:05;;;;;;;;;;;;;;;46.63;7.10;97474.78;6198318;28;20409;-64
2022/08/26 10:56:24;;;;;;;;;;;;;;;46.55;7.34;97472.78;6199174;28;19926;-64
2022/08/26 10:59:35;;;;;;;;;;;;;;;46.33;7.59;97468.06;6198849;28;19922;-64
2022/08/26 11:02:41;;;;;;;;;;;;;;;46.16;7.89;97465.16;6198570;28;19925;-64
2022/08/26 11:05:42;;;;;;;;;;;;;;;45.74;8.21;97459.72;6207652;28;19926;-64
2022/08/26 11:08:51;;;;;;;;;;;;;;;45.71;8.18;97460.34;6222059;28;19925;-65
2022/08/26 11:11:53;;;;;;;;;;;;;;;45.99;8.08;97455.53;6221872;28;20399;-65
2022/08/26 11:14:54;;;;;;;;;;;;;;;45.52;8.71;97452.16;6222329;28;20375;-63
2022/08/26 11:17:55;;;;;;;;;;;;;;;44.78;8.73;97438.41;6221807;28;19975;-65
2022/08/26 11:20:59;;;;;;;;;;;;;;;44.78;8.92;97438.41;6222517;28;20032;-66
2022/08/26 11:24:03;;;;;;;;;;;;;;;44.45;9.05;97441.22;6221436;28;19926;-65
2022/08/26 11:27:30;;;;;;;;;;;;;;;43.91;9.28;97437.13;6221805;28;20207;-65
2022/08/26 11:30:37;;;;;;;;;;;;;;;43.29;9.84;97442.72;6222261;28;19925;-64
2022/08/26 11:33:49;;;;;;;;;;;;;;;42.89;9.43;97432.94;6222168;28;20449;-65
2022/08/26 11:36:57;;;;;;;;;;;;;;;42.53;9.88;97436.09;6222621;28;19955;-64
2022/08/26 11:40:02;;;;;;;;;;;;;;;42.92;9.57;97432.34;6209514;28;19925;-65
2022/08/26 11:43:17;;;;;;;;;;;;;;;43.34;9.52;97433.50;6203954;28;19925;-65
2022/08/26 11:46:24;;;;;;;;;;;;;;;43.06;9.98;97438.84;6221544;28;20007;-64
2022/08/26 11:49:30;;;;;;;;;;;;;;;42.74;10.41;97432.00;6221754;28;19926;-64
2022/08/26 11:52:33;;;;;;;;;;;;;;;42.21;10.90;97433.88;6221673;28;19925;-64
2022/08/26 11:55:42;;;;;;;;;;;;;;;41.33;11.18;97430.03;6219423;28;19952;-63
2022/08/26 11:58:45;;;;;;;;;;;;;;;40.41;11.79;97420.13;6215466;28;20010;-65
2022/08/26 12:01:49;;;;;;;;;;;;;;;39.29;12.39;97410.63;6220248;28;20284;-65
2022/08/26 12:04:53;;;;;;;;;;;;;;;38.14;13.27;97416.06;6221019;28;19926;-64
2022/08/26 12:07:56;;;;;;;;;;;;;;;38.10;13.40;97417.66;6215347;28;19937;-65
2022/08/26 12:11:01;;;;;;;;;;;;;;;38.36;13.21;97414.00;6216106;28;20012;-65
2022/08/26 12:14:04;;;;;;;;;;;;;;;38.63;13.37;97418.56;6212916;28;20007;-66
2022/08/26 12:17:10;;;;;;;;;;;;;;;38.52;13.34;97416.88;6211775;28;20404;-67
2022/08/26 12:20:46;;;;;;;;;;;;;;;38.18;13.62;97417.16;6208472;28;19925;-63
2022/08/26 12:23:53;;;;;;;;;;;;;;;38.11;14.63;97411.09;6211262;28;20306;-66
2022/08/26 12:27:23;;;;;;;;;;;;;;;37.68;14.76;97418.34;6214943;28;19929;-65
2022/08/26 12:30:27;;;;;;;;;;;;;;;37.44;14.71;97415.09;6205047;28;19925;-63
2022/08/26 12:33:35;;;;;;;;;;;;;;;37.60;14.53;97416.13;6219695;28;19925;-67
2022/08/26 12:36:45;;;;;;;;;;;;;;;37.92;14.87;97419.69;6215582;28;20028;-67
2022/08/26 12:39:47;;;;;;;;;;;;;;;37.61;14.65;97415.00;6216877;28;20422;-67
2022/08/26 12:42:49;;;;;;;;;;;;;;;36.95;15.46;97406.84;6213178;28;20547;-67
2022/08/26 12:45:58;;;;;;;;;;;;;;;36.07;15.44;97403.94;6217458;28;19926;-68
2022/08/26 12:49:04;;;;;;;;;;;;;;;35.33;16.09;97415.75;6217023;28;19925;-66
2022/08/26 12:52:28;;;;;;;;;;;;;;;34.76;16.49;97416.50;6231910;28;19925;-67
2022/08/26 12:55:43;;;;;;;;;;;;;;;34.73;16.37;97413.41;6215231;28;19995;-67
2022/08/26 12:58:58;;;;;;;;;;;;;;;34.89;16.33;97412.66;6213716;28;20060;-67
2022/08/26 13:02:02;;;;;;;;;;;;;;;35.12;16.01;97409.06;6217413;28;20385;-67
2022/08/26 13:05:06;;;;;;;;;;;;;;;35.24;15.78;97406.25;6211131;28;19930;-66
2022/08/26 13:08:14;;;;;;;;;;;;;;;35.33;15.82;97409.44;6215234;28;19925;-66
2022/08/26 13:11:19;;;;;;;;;;;;;;;35.35;15.78;97410.03;6215956;28;20020;-67
2022/08/26 13:14:23;;;;;;;;;;;;;;;35.30;15.43;97411.59;6213804;28;20445;-66
2022/08/26 13:17:29;;;;;;;;;;;;;;;35.15;15.62;97408.56;6216827;28;19937;-66
2022/08/26 13:20:34;;;;;;;;;;;;;;;34.83;15.57;97400.78;6215627;28;20288;-67
2022/08/26 13:23:35;;;;;;;;;;;;;;;34.48;15.89;97397.25;6214758;28;19925;-67
2022/08/26 13:26:37;;;;;;;;;;;;;;;34.25;15.75;97398.13;6217000;28;19991;-67
2022/08/26 13:29:40;;;;;;;;;;;;;;;33.84;15.77;97392.50;6210903;28;19933;-67
2022/08/26 13:32:44;;;;;;;;;;;;;;;33.56;16.05;97392.31;6209440;28;19925;-67
2022/08/26 13:35:47;;;;;;;;;;;;;;;33.37;16.06;97380.59;6222133;28;20312;-66
2022/08/26 13:38:49;;;;;;;;;;;;;;;32.94;15.79;97389.78;6215233;28;19933;-68
2022/08/26 13:41:51;;;;;;;;;;;;;;;32.56;16.37;97391.72;6221911;28;19931;-66
2022/08/26 13:44:56;;;;;;;;;;;;;;;32.25;16.84;97389.09;6204033;28;19926;-67
2022/08/26 13:47:59;;;;;;;;;;;;;;;31.98;17.20;97394.78;6233627;28;19925;-67
2022/08/26 13:51:03;;;;;;;;;;;;;;;31.75;17.96;97390.75;6220761;28;20014;-66
2022/08/26 13:54:07;;;;;;;;;;;;;;;31.63;17.75;97386.25;6219650;28;20314;-67
2022/08/26 13:57:10;;;;;;;;;;;;;;;31.40;18.16;97392.28;6218778;28;20327;-66
2022/08/26 14:00:14;;;;;;;;;;;;;;;31.14;18.92;97387.78;6206490;28;19929;-69
2022/08/26 14:03:18;;;;;;;;;;;;;;;30.94;19.09;97396.03;6209342;28;19926;-68
2022/08/26 14:06:24;;;;;;;;;;;;;;;30.71;19.13;97389.22;6214821;28;20012;-67
2022/08/26 14:09:28;;;;;;;;;;;;;;;30.41;19.63;97395.16;6213179;28;19926;-67
2022/08/26 14:12:30;;;;;;;;;;;;;;;30.19;19.50;97396.44;6213832;28;19930;-67
2022/08/26 14:15:34;;;;;;;;;;;;;;;29.93;19.85;97395.44;6210158;28;19925;-67
2022/08/26 14:18:43;;;;;;;;;;;;;;;29.82;20.02;97400.66;6210534;28;19921;-68
2022/08/26 14:21:49;;;;;;;;;;;;;;;29.59;20.27;97398.31;6214836;28;20302;-67
2022/08/26 14:24:50;;;;;;;;;;;;;;;29.39;20.52;97401.00;6216749;28;19932;-67
2022/08/26 14:27:53;;;;;;;;;;;;;;;29.21;20.69;97398.88;6221362;28;19925;-67
2022/08/26 14:30:56;;;;;;;;;;;;;;;29.03;20.87;97397.56;6212912;28;20415;-67
2022/08/26 14:34:06;;;;;;;;;;;;;;;28.92;20.55;97402.72;6214833;28;19929;-67
2022/08/26 14:37:07;;;;;;;;;;;;;;;28.61;20.46;97393.22;6213928;28;19956;-66
2022/08/26 14:40:13;;;;;;;;;;;;;;;28.48;20.76;97399.41;6219262;28;19932;-66
2022/08/26 14:43:16;;;;;;;;;;;;;;;28.32;20.80;97402.41;6212706;28;20284;-66
2022/08/26 14:46:18;;;;;;;;;;;;;;;28.08;21.08;97404.53;6214008;28;20454;-66
2022/08/26 14:49:22;;;;;;;;;;;;;;;27.89;21.41;97406.06;6220384;28;20011;-66
2022/08/26 14:52:24;;;;;;;;;;;;;;;27.71;21.82;97409.22;6217468;28;19926;-66
2022/08/26 14:55:26;;;;;;;;;;;;;;;27.55;22.11;97409.50;6220545;28;20024;-66
2022/08/26 14:58:29;;;;;;;;;;;;;;;27.31;22.05;97411.53;6221167;28;20461;-66
2022/08/26 15:01:31;;;;;;;;;;;;;;;27.10;22.43;97406.91;6218138;28;19947;-66
2022/08/26 15:04:34;;;;;;;;;;;;;;;27.03;22.66;97418.66;6216674;28;19926;-66
2022/08/26 15:07:35;;;;;;;;;;;;;;;26.93;22.66;97418.97;6217911;28;19932;-66
2022/08/26 15:10:37;;;;;;;;;;;;;;;26.76;22.44;97415.66;6220020;28;19932;-66
2022/08/26 15:13:38;;;;;;;;;;;;;;;26.62;22.86;97408.41;6220291;28;20576;-66
2022/08/26 15:16:39;;;;;;;;;;;;;;;26.52;23.03;97414.09;6218499;28;20027;-67
2022/08/26 15:19:42;;;;;;;;;;;;;;;26.51;22.64;97415.13;6218505;28;20379;-67
2022/08/26 15:22:43;;;;;;;;;;;;;;;26.47;23.05;97431.81;6219790;28;19932;-68
2022/08/26 15:25:45;;;;;;;;;;;;;;;26.40;22.94;97429.88;6220010;28;19999;-67
2022/08/26 15:28:47;;;;;;;;;;;;;;;26.23;23.30;97431.09;6219542;28;19925;-66
2022/08/26 15:31:51;;;;;;;;;;;;;;;26.17;23.35;97438.06;6218000;28;19925;-67
2022/08/26 15:34:54;;;;;;;;;;;;;;;26.39;23.74;97430.91;6216660;28;19925;-68
2022/08/26 15:37:55;;;;;;;;;;;;;;;26.31;23.46;97436.41;6210076;28;19929;-66
2022/08/26 15:40:57;;;;;;;;;;;;;;;26.36;23.85;97439.38;6221388;28;19932;-66
2022/08/26 15:43:59;;;;;;;;;;;;;;;26.27;23.52;97437.81;6221564;28;20030;-66
2022/08/26 15:47:03;;;;;;;;;;;;;;;26.14;24.07;97448.38;6221358;28;19925;-67
2022/08/26 15:50:05;;;;;;;;;;;;;;;26.14;24.39;97443.81;6221223;28;19925;-66
2022/08/26 15:53:06;;;;;;;;;;;;;;;25.98;24.54;97449.38;6220624;28;20345;-67
2022/08/26 15:56:10;;;;;;;;;;;;;;;25.95;24.52;97449.72;6216332;28;19933;-66
2022/08/26 15:59:11;;;;;;;;;;;;;;;25.89;24.38;97455.84;6219566;28;20024;-67
2022/08/26 16:02:16;;;;;;;;;;;;;;;25.93;24.48;97449.94;6217314;28;20008;-65
2022/08/26 16:05:17;;;;;;;;;;;;;;;25.84;24.77;97455.56;6218958;28;20429;-65
2022/08/26 16:08:19;;;;;;;;;;;;;;;25.71;24.88;97456.16;6217982;28;19925;-65
2022/08/26 16:11:23;;;;;;;;;;;;;;;25.76;24.97;97462.69;6218251;28;19925;-66
2022/08/26 16:14:24;;;;;;;;;;;;;;;25.62;25.23;97459.91;6220320;28;20024;-65